Isabella — 9HSL7 — position and weather

sailwx.info

Track history (hours):
 
Tides and Currents Weather Stations Pressure Air Temp Water Temp Dewpoint Dewpoint Depression Visibility Wind Speed Wind Dir Waves Ship Positions

Isabella

Last reported at 2016-Jun-30 08:32 UTC. Time now 2016-Jun-30 08:44 UTC.
Position N 54°40' E 007°10'.

Length 244 m; draft 8 m.

Type: Tanker. MMSI: 215545000.

Date/timePositionNaut miles runAvg speedWind from/ knotsBaromVisibWave heightAir tempDewpointWater temp
2016-Jun-30 08:32N 54°40' E 007°10'0 0.0
2016-Jun-30 07:29N 54°40' E 007°10'0 0.1
2016-Jun-30 06:32N 54°39' E 007°10'0 0.0
2016-Jun-30 05:26N 54°39' E 007°10'0 0.0
2016-Jun-30 04:26N 54°39' E 007°10'0 0.0
2016-Jun-30 03:32N 54°39' E 007°10'0 0.1
2016-Jun-30 02:29N 54°39' E 007°10'0 0.0
2016-Jun-30 01:32N 54°39' E 007°10'0 0.1
2016-Jun-30 00:32N 54°39' E 007°10'0 0.1
2016-Jun-29 23:23N 54°39' E 007°10'0 0.1
2016-Jun-29 22:32N 54°39' E 007°10'0 0.1
2016-Jun-29 21:32N 54°39' E 007°10'0 0.1
2016-Jun-29 20:32N 54°39' E 007°10'0 0.0
2016-Jun-29 19:29N 54°39' E 007°10'0 0.0
2016-Jun-29 18:32N 54°39' E 007°10'0 0.0
2016-Jun-29 17:32N 54°39' E 007°10'0 0.0
2016-Jun-29 16:29N 54°39' E 007°10'0 0.0
2016-Jun-29 15:29N 54°39' E 007°10'0 0.1
2016-Jun-29 14:32N 54°39' E 007°10'0 0.0
2016-Jun-29 13:32N 54°39' E 007°10'0 0.0
2016-Jun-29 12:32N 54°39' E 007°10'0 0.1
2016-Jun-29 11:32N 54°39' E 007°10'0 0.0
2016-Jun-29 10:23N 54°39' E 007°10'0 0.0
2016-Jun-29 09:26N 54°39' E 007°10'0 0.1
2016-Jun-29 08:26N 54°39' E 007°10'0 0.0
2016-Jun-29 07:29N 54°39' E 007°10'0 0.0
2016-Jun-29 06:23N 54°39' E 007°10'0 0.1
2016-Jun-29 05:29N 54°39' E 007°10'0 0.0
2016-Jun-29 04:32N 54°39' E 007°10'0 0.1
2016-Jun-29 03:26N 54°39' E 007°10'0 0.0
2016-Jun-29 02:32N 54°39' E 007°10'0 0.1
2016-Jun-29 01:29N 54°39' E 007°10'0 0.1
2016-Jun-29 00:23N 54°39' E 007°10'0 0.0
2016-Jun-28 23:32N 54°39' E 007°10'0 0.1
2016-Jun-28 22:32N 54°39' E 007°10'0 0.0
2016-Jun-28 21:29N 54°39' E 007°09'0 0.0
2016-Jun-28 20:32N 54°39' E 007°10'0 0.0
2016-Jun-28 19:32N 54°39' E 007°10'0 0.0
2016-Jun-28 18:32N 54°39' E 007°10'0 0.2
2016-Jun-28 17:32N 54°39' E 007°10'0 0.1
2016-Jun-28 16:29N 54°39' E 007°10'0 0.0
2016-Jun-28 14:26N 54°39' E 007°10'0 0.0
2016-Jun-28 13:29N 54°39' E 007°10'0 0.1
2016-Jun-28 12:32N 54°39' E 007°10'0 0.0
2016-Jun-28 11:26N 54°39' E 007°10'0 0.1
2016-Jun-28 10:29N 54°39' E 007°10'0 0.0
2016-Jun-28 09:17N 54°39' E 007°10'0 0.0
2016-Jun-28 08:29N 54°39' E 007°10'0 0.0
2016-Jun-28 07:32N 54°39' E 007°10'0 0.0
2016-Jun-28 06:29N 54°39' E 007°10'0 0.1
2016-Jun-28 04:23N 54°39' E 007°10'0 0.0
2016-Jun-28 03:17N 54°39' E 007°10'0 0.0
2016-Jun-28 00:23N 54°39' E 007°10'0 0.0
2016-Jun-27 23:32N 54°39' E 007°10'0 0.0
2016-Jun-27 22:29N 54°39' E 007°10'0 0.0
2016-Jun-27 21:26N 54°39' E 007°10'0 0.1
2016-Jun-27 20:17N 54°39' E 007°10'0 0.1
2016-Jun-27 19:32N 54°39' E 007°10'0 0.2
2016-Jun-27 18:29N 54°39' E 007°10'5 5.3
2016-Jun-27 17:34N 54°34' E 007°09'1010.0
2016-Jun-27 16:34N 54°26' E 007°18'1010.0
2016-Jun-27 15:34N 54°18' E 007°28'9 9.1
2016-Jun-27 14:33N 54°11' E 007°39'9 8.9
2016-Jun-27 13:33N 54°06' E 007°52'1111.0
2016-Jun-27 12:33N 54°01' E 008°08'1111.1
2016-Jun-27 11:33N 53°59' E 008°27'1413.6
2016-Jun-27 10:33N 53°51' E 008°45'1413.8
2016-Jun-27 09:33N 53°53' E 009°09'1 0.7
2016-Jun-27 08:15N 53°53' E 009°10'0 0.0
2016-Jun-27 07:27N 53°53' E 009°10'0 0.0
2016-Jun-27 06:33N 53°53' E 009°10'0 0.0
2016-Jun-27 04:33N 53°53' E 009°10'0 0.0
2016-Jun-27 03:33N 53°53' E 009°10'0 0.0
2016-Jun-27 02:27N 53°53' E 009°10'0 0.0
2016-Jun-27 01:24N 53°53' E 009°10'0 0.0
2016-Jun-27 00:30N 53°53' E 009°10'0 0.0
2016-Jun-26 23:30N 53°53' E 009°10'0 0.0
2016-Jun-26 22:30N 53°53' E 009°10'0 0.0
2016-Jun-26 21:33N 53°53' E 009°10'0 0.0
2016-Jun-26 20:30N 53°53' E 009°10'0 0.0
2016-Jun-26 19:33N 53°53' E 009°10'0 0.0
2016-Jun-26 18:33N 53°53' E 009°10'0 0.0
2016-Jun-26 17:27N 53°53' E 009°10'0 0.0
2016-Jun-26 16:33N 53°53' E 009°10'0 0.0
2016-Jun-26 15:33N 53°53' E 009°10'0 0.0
2016-Jun-26 14:27N 53°53' E 009°10'0 0.0
2016-Jun-26 13:30N 53°53' E 009°10'0 0.0
2016-Jun-26 12:33N 53°53' E 009°10'0 0.0
2016-Jun-26 11:33N 53°53' E 009°10'0 0.0
2016-Jun-26 10:30N 53°53' E 009°10'0 0.0
2016-Jun-26 09:33N 53°53' E 009°10'0 0.0
2016-Jun-26 08:24N 53°53' E 009°10'0 0.0
2016-Jun-26 07:33N 53°53' E 009°10'0 0.0
2016-Jun-26 06:33N 53°53' E 009°10'4 4.3
2016-Jun-26 05:33N 53°52' E 009°03'10 9.6
2016-Jun-26 04:33N 53°50' E 008°47'1111.1
2016-Jun-26 03:34N 53°58' E 008°33'1212.2
2016-Jun-26 02:33N 53°60' E 008°13'1211.9
2016-Jun-26 01:33N 54°02' E 007°53'2 2.1
2016-Jun-26 00:34N 54°03' E 007°50'0 0.4
2016-Jun-25 23:33N 54°03' E 007°50'3 3.4
2016-Jun-25 22:33N 54°04' E 007°44'0 0.1
2016-Jun-25 21:30N 54°04' E 007°44'0 0.1
2016-Jun-25 20:33N 54°04' E 007°44'0 0.1
2016-Jun-25 19:33N 54°04' E 007°44'0 0.1
2016-Jun-25 18:30N 54°04' E 007°44'0 0.0
2016-Jun-25 17:33N 54°04' E 007°44'0 0.1
2016-Jun-25 16:30N 54°04' E 007°44'0 0.2
2016-Jun-25 15:33N 54°04' E 007°44'0 0.0
2016-Jun-25 14:33N 54°04' E 007°44'0 0.1
2016-Jun-25 13:30N 54°04' E 007°44'0 0.0
2016-Jun-25 12:33N 54°04' E 007°44'0 0.1
2016-Jun-25 11:30N 54°04' E 007°44'0 0.1
2016-Jun-25 10:33N 54°04' E 007°44'0 0.1
2016-Jun-25 09:33N 54°04' E 007°44'0 0.2
2016-Jun-25 08:33N 54°04' E 007°44'0 0.1
2016-Jun-25 07:33N 54°04' E 007°44'0 0.0
2016-Jun-25 06:33N 54°04' E 007°44'0 0.0
2016-Jun-25 05:33N 54°04' E 007°44'0 0.0
2016-Jun-25 04:33N 54°04' E 007°44'0 0.2
2016-Jun-25 03:33N 54°04' E 007°44'0 0.1
2016-Jun-25 02:33N 54°04' E 007°44'0 0.0
2016-Jun-25 01:30N 54°04' E 007°44'0 0.0
2016-Jun-25 00:33N 54°04' E 007°44'0 0.0
2016-Jun-24 23:33N 54°04' E 007°44'0 0.0
2016-Jun-24 22:33N 54°04' E 007°44'0 0.1
2016-Jun-24 21:33N 54°04' E 007°44'0 0.2
2016-Jun-24 20:33N 54°04' E 007°44'0 0.0
2016-Jun-24 19:33N 54°04' E 007°44'0 0.0
2016-Jun-24 18:30N 54°04' E 007°44'0 0.0
2016-Jun-24 17:33N 54°04' E 007°44'0 0.0
2016-Jun-24 16:33N 54°04' E 007°44'0 0.1
2016-Jun-24 15:24N 54°04' E 007°44'0 0.2
2016-Jun-24 14:33N 54°04' E 007°44'0 0.0
2016-Jun-24 13:30N 54°04' E 007°44'0 0.0
2016-Jun-24 12:30N 54°04' E 007°44'0 0.0
2016-Jun-24 11:33N 54°04' E 007°44'0 0.0
2016-Jun-24 10:33N 54°04' E 007°44'0 0.0
2016-Jun-24 09:30N 54°04' E 007°44'0 0.2
2016-Jun-24 08:33N 54°04' E 007°44'0 0.2
2016-Jun-24 07:33N 54°04' E 007°44'0 0.0
2016-Jun-24 04:33N 54°04' E 007°44'0 0.0
2016-Jun-24 03:33N 54°04' E 007°44'0 0.1
2016-Jun-24 02:24N 54°04' E 007°44'0 0.2
2016-Jun-24 01:33N 54°04' E 007°44'0 0.0
2016-Jun-24 00:33N 54°04' E 007°44'0 0.0
2016-Jun-23 23:33N 54°04' E 007°44'0 0.0
2016-Jun-23 22:33N 54°04' E 007°44'0 0.0
2016-Jun-23 21:33N 54°04' E 007°44'0 0.2
2016-Jun-23 20:27N 54°04' E 007°44'0 0.1
2016-Jun-23 19:30N 54°04' E 007°44'0 0.0
2016-Jun-23 18:33N 54°04' E 007°44'0 0.0
2016-Jun-23 17:33N 54°04' E 007°44'0 0.0
2016-Jun-23 16:33N 54°04' E 007°44'0 0.0
2016-Jun-23 15:33N 54°04' E 007°44'0 0.2
2016-Jun-23 14:33N 54°04' E 007°44'0 0.1
2016-Jun-23 13:30N 54°04' E 007°44'0 0.0
2016-Jun-23 12:30N 54°04' E 007°44'0 0.0
2016-Jun-23 11:33N 54°04' E 007°44'0 0.0
2016-Jun-23 10:33N 54°04' E 007°44'0 0.0
2016-Jun-23 09:33N 54°04' E 007°44'0 0.2
2016-Jun-23 08:30N 54°04' E 007°44'0 0.2
2016-Jun-23 07:33N 54°04' E 007°44'0 0.0
2016-Jun-23 05:33N 54°04' E 007°44'0 0.0
2016-Jun-23 04:33N 54°04' E 007°44'0 0.0
2016-Jun-23 03:33N 54°04' E 007°44'0 0.0
2016-Jun-23 02:33N 54°04' E 007°44'0 0.2
2016-Jun-23 01:33N 54°04' E 007°44'0 0.1
2016-Jun-23 00:33N 54°04' E 007°44'0 0.0
2016-Jun-22 23:33N 54°04' E 007°44'0 0.0
2016-Jun-22 22:33N 54°04' E 007°44'0 0.0
2016-Jun-22 21:30N 54°04' E 007°44'0 0.0
2016-Jun-22 20:33N 54°04' E 007°44'0 0.3
2016-Jun-22 19:33N 54°04' E 007°44'0 0.1
2016-Jun-22 18:33N 54°04' E 007°44'0 0.0
2016-Jun-22 17:31N 54°04' E 007°44'0 0.0
2016-Jun-22 16:33N 54°04' E 007°44'0 0.0
2016-Jun-22 15:33N 54°04' E 007°44'0 0.0
2016-Jun-22 14:33N 54°04' E 007°44'0 0.2
2016-Jun-22 13:33N 54°04' E 007°44'0 0.1
2016-Jun-22 12:33N 54°04' E 007°44'0 0.0
2016-Jun-22 11:33N 54°04' E 007°44'0 0.0
2016-Jun-22 10:24N 54°04' E 007°44'0 0.0
2016-Jun-22 09:30N 54°04' E 007°44'0 0.0
2016-Jun-22 08:33N 54°04' E 007°44'0 0.1
2016-Jun-22 07:33N 54°04' E 007°44'0 0.2
2016-Jun-22 06:33N 54°04' E 007°44'0 0.1
2016-Jun-22 05:33N 54°04' E 007°44'0 0.1
2016-Jun-22 04:33N 54°04' E 007°44'0 0.0
2016-Jun-22 03:33N 54°04' E 007°44'0 0.1
2016-Jun-22 02:33N 54°04' E 007°44'0 0.1
2016-Jun-22 01:33N 54°04' E 007°44'0 0.2
2016-Jun-22 00:33N 54°04' E 007°44'0 0.0
2016-Jun-21 23:33N 54°04' E 007°44'0 0.0
2016-Jun-21 22:30N 54°04' E 007°44'0 0.0
2016-Jun-21 21:33N 54°04' E 007°44'0 0.0
2016-Jun-21 20:30N 54°04' E 007°44'0 0.2
2016-Jun-21 19:33N 54°04' E 007°44'0 0.1
2016-Jun-21 18:33N 54°04' E 007°44'0 0.0
2016-Jun-21 17:33N 54°04' E 007°44'0 0.0
2016-Jun-21 16:33N 54°04' E 007°44'0 0.0
2016-Jun-21 15:33N 54°04' E 007°44'0 0.0
2016-Jun-21 14:30N 54°04' E 007°44'0 0.1
2016-Jun-21 13:33N 54°04' E 007°44'0 0.2
2016-Jun-21 12:33N 54°04' E 007°44'0 0.0
2016-Jun-21 11:33N 54°04' E 007°44'0 0.0
2016-Jun-21 10:30N 54°04' E 007°44'0 0.0
2016-Jun-21 09:33N 54°04' E 007°44'0 0.0
2016-Jun-21 08:33N 54°04' E 007°44'0 0.0
2016-Jun-21 07:33N 54°04' E 007°44'0 0.1
2016-Jun-21 04:33N 54°04' E 007°44'0 0.0
2016-Jun-21 03:33N 54°04' E 007°44'0 0.2
2016-Jun-21 02:33N 54°04' E 007°44'0 0.2
2016-Jun-21 01:33N 54°04' E 007°44'0 0.0
2016-Jun-21 00:33N 54°04' E 007°44'0 0.0
2016-Jun-20 23:33N 54°04' E 007°44'0 0.0
2016-Jun-20 22:33N 54°04' E 007°44'0 0.0
2016-Jun-20 21:24N 54°04' E 007°44'0 0.0
2016-Jun-20 20:33N 54°04' E 007°44'0 0.0
2016-Jun-20 19:33N 54°04' E 007°44'0 0.1
2016-Jun-20 18:33N 54°04' E 007°44'0 0.1
2016-Jun-20 17:33N 54°04' E 007°44'0 0.1
2016-Jun-20 16:33N 54°04' E 007°44'0 0.0
2016-Jun-20 15:33N 54°04' E 007°44'0 0.0
2016-Jun-20 14:33N 54°04' E 007°44'0 0.1
2016-Jun-20 13:33N 54°04' E 007°44'0 0.1
2016-Jun-20 12:33N 54°04' E 007°44'0 0.1
2016-Jun-20 11:33N 54°04' E 007°44'0 0.0
2016-Jun-20 10:33N 54°04' E 007°44'0 0.0
2016-Jun-20 09:33N 54°04' E 007°44'0 0.0
2016-Jun-20 08:33N 54°04' E 007°44'  
Track history (hours):
 
Tides and Currents Weather Stations Pressure Air Temp Water Temp Dewpoint Dewpoint Depression Visibility Wind Speed Wind Dir Waves Ship Positions

Isabella

Last reported at 2016-Jun-30 08:32 UTC. Time now 2016-Jun-30 08:44 UTC.
Position N 54°40' E 007°10'.

Length 244 m; draft 8 m.

Type: Tanker. MMSI: 215545000.

Date/timePositionNaut miles runAvg speedWind from/ knotsBaromVisibWave heightAir tempDewpointWater temp
2016-Jun-30 08:32N 54°40' E 007°10'0 0.0
2016-Jun-30 07:29N 54°40' E 007°10'0 0.1
2016-Jun-30 06:32N 54°39' E 007°10'0 0.0
2016-Jun-30 05:26N 54°39' E 007°10'0 0.0
2016-Jun-30 04:26N 54°39' E 007°10'0 0.0
2016-Jun-30 03:32N 54°39' E 007°10'0 0.1
2016-Jun-30 02:29N 54°39' E 007°10'0 0.0
2016-Jun-30 01:32N 54°39' E 007°10'0 0.1
2016-Jun-30 00:32N 54°39' E 007°10'0 0.1
2016-Jun-29 23:23N 54°39' E 007°10'0 0.1
2016-Jun-29 22:32N 54°39' E 007°10'0 0.1
2016-Jun-29 21:32N 54°39' E 007°10'0 0.1
2016-Jun-29 20:32N 54°39' E 007°10'0 0.0
2016-Jun-29 19:29N 54°39' E 007°10'0 0.0
2016-Jun-29 18:32N 54°39' E 007°10'0 0.0
2016-Jun-29 17:32N 54°39' E 007°10'0 0.0
2016-Jun-29 16:29N 54°39' E 007°10'0 0.0
2016-Jun-29 15:29N 54°39' E 007°10'0 0.1
2016-Jun-29 14:32N 54°39' E 007°10'0 0.0
2016-Jun-29 13:32N 54°39' E 007°10'0 0.0
2016-Jun-29 12:32N 54°39' E 007°10'0 0.1
2016-Jun-29 11:32N 54°39' E 007°10'0 0.0
2016-Jun-29 10:23N 54°39' E 007°10'0 0.0
2016-Jun-29 09:26N 54°39' E 007°10'0 0.1
2016-Jun-29 08:26N 54°39' E 007°10'0 0.0
2016-Jun-29 07:29N 54°39' E 007°10'0 0.0
2016-Jun-29 06:23N 54°39' E 007°10'0 0.1
2016-Jun-29 05:29N 54°39' E 007°10'0 0.0
2016-Jun-29 04:32N 54°39' E 007°10'0 0.1
2016-Jun-29 03:26N 54°39' E 007°10'0 0.0
2016-Jun-29 02:32N 54°39' E 007°10'0 0.1
2016-Jun-29 01:29N 54°39' E 007°10'0 0.1
2016-Jun-29 00:23N 54°39' E 007°10'0 0.0
2016-Jun-28 23:32N 54°39' E 007°10'0 0.1
2016-Jun-28 22:32N 54°39' E 007°10'0 0.0
2016-Jun-28 21:29N 54°39' E 007°09'0 0.0
2016-Jun-28 20:32N 54°39' E 007°10'0 0.0
2016-Jun-28 19:32N 54°39' E 007°10'0 0.0
2016-Jun-28 18:32N 54°39' E 007°10'0 0.2
2016-Jun-28 17:32N 54°39' E 007°10'0 0.1
2016-Jun-28 16:29N 54°39' E 007°10'0 0.0
2016-Jun-28 14:26N 54°39' E 007°10'0 0.0
2016-Jun-28 13:29N 54°39' E 007°10'0 0.1
2016-Jun-28 12:32N 54°39' E 007°10'0 0.0
2016-Jun-28 11:26N 54°39' E 007°10'0 0.1
2016-Jun-28 10:29N 54°39' E 007°10'0 0.0
2016-Jun-28 09:17N 54°39' E 007°10'0 0.0
2016-Jun-28 08:29N 54°39' E 007°10'0 0.0
2016-Jun-28 07:32N 54°39' E 007°10'0 0.0
2016-Jun-28 06:29N 54°39' E 007°10'0 0.1
2016-Jun-28 04:23N 54°39' E 007°10'0 0.0
2016-Jun-28 03:17N 54°39' E 007°10'0 0.0
2016-Jun-28 00:23N 54°39' E 007°10'0 0.0
2016-Jun-27 23:32N 54°39' E 007°10'0 0.0
2016-Jun-27 22:29N 54°39' E 007°10'0 0.0
2016-Jun-27 21:26N 54°39' E 007°10'0 0.1
2016-Jun-27 20:17N 54°39' E 007°10'0 0.1
2016-Jun-27 19:32N 54°39' E 007°10'0 0.2
2016-Jun-27 18:29N 54°39' E 007°10'5 5.3
2016-Jun-27 17:34N 54°34' E 007°09'1010.0
2016-Jun-27 16:34N 54°26' E 007°18'1010.0
2016-Jun-27 15:34N 54°18' E 007°28'9 9.1
2016-Jun-27 14:33N 54°11' E 007°39'9 8.9
2016-Jun-27 13:33N 54°06' E 007°52'1111.0
2016-Jun-27 12:33N 54°01' E 008°08'1111.1
2016-Jun-27 11:33N 53°59' E 008°27'1413.6
2016-Jun-27 10:33N 53°51' E 008°45'1413.8
2016-Jun-27 09:33N 53°53' E 009°09'1 0.7
2016-Jun-27 08:15N 53°53' E 009°10'0 0.0
2016-Jun-27 07:27N 53°53' E 009°10'0 0.0
2016-Jun-27 06:33N 53°53' E 009°10'0 0.0
2016-Jun-27 04:33N 53°53' E 009°10'0 0.0
2016-Jun-27 03:33N 53°53' E 009°10'0 0.0
2016-Jun-27 02:27N 53°53' E 009°10'0 0.0
2016-Jun-27 01:24N 53°53' E 009°10'0 0.0
2016-Jun-27 00:30N 53°53' E 009°10'0 0.0
2016-Jun-26 23:30N 53°53' E 009°10'0 0.0
2016-Jun-26 22:30N 53°53' E 009°10'0 0.0
2016-Jun-26 21:33N 53°53' E 009°10'0 0.0
2016-Jun-26 20:30N 53°53' E 009°10'0 0.0
2016-Jun-26 19:33N 53°53' E 009°10'0 0.0
2016-Jun-26 18:33N 53°53' E 009°10'0 0.0
2016-Jun-26 17:27N 53°53' E 009°10'0 0.0
2016-Jun-26 16:33N 53°53' E 009°10'0 0.0
2016-Jun-26 15:33N 53°53' E 009°10'0 0.0
2016-Jun-26 14:27N 53°53' E 009°10'0 0.0
2016-Jun-26 13:30N 53°53' E 009°10'0 0.0
2016-Jun-26 12:33N 53°53' E 009°10'0 0.0
2016-Jun-26 11:33N 53°53' E 009°10'0 0.0
2016-Jun-26 10:30N 53°53' E 009°10'0 0.0
2016-Jun-26 09:33N 53°53' E 009°10'0 0.0
2016-Jun-26 08:24N 53°53' E 009°10'0 0.0
2016-Jun-26 07:33N 53°53' E 009°10'0 0.0
2016-Jun-26 06:33N 53°53' E 009°10'4 4.3
2016-Jun-26 05:33N 53°52' E 009°03'10 9.6
2016-Jun-26 04:33N 53°50' E 008°47'1111.1
2016-Jun-26 03:34N 53°58' E 008°33'1212.2
2016-Jun-26 02:33N 53°60' E 008°13'1211.9
2016-Jun-26 01:33N 54°02' E 007°53'2 2.1
2016-Jun-26 00:34N 54°03' E 007°50'0 0.4
2016-Jun-25 23:33N 54°03' E 007°50'3 3.4
2016-Jun-25 22:33N 54°04' E 007°44'0 0.1
2016-Jun-25 21:30N 54°04' E 007°44'0 0.1
2016-Jun-25 20:33N 54°04' E 007°44'0 0.1
2016-Jun-25 19:33N 54°04' E 007°44'0 0.1
2016-Jun-25 18:30N 54°04' E 007°44'0 0.0
2016-Jun-25 17:33N 54°04' E 007°44'0 0.1
2016-Jun-25 16:30N 54°04' E 007°44'0 0.2
2016-Jun-25 15:33N 54°04' E 007°44'0 0.0
2016-Jun-25 14:33N 54°04' E 007°44'0 0.1
2016-Jun-25 13:30N 54°04' E 007°44'0 0.0
2016-Jun-25 12:33N 54°04' E 007°44'0 0.1
2016-Jun-25 11:30N 54°04' E 007°44'0 0.1
2016-Jun-25 10:33N 54°04' E 007°44'0 0.1
2016-Jun-25 09:33N 54°04' E 007°44'0 0.2
2016-Jun-25 08:33N 54°04' E 007°44'0 0.1
2016-Jun-25 07:33N 54°04' E 007°44'0 0.0
2016-Jun-25 06:33N 54°04' E 007°44'0 0.0
2016-Jun-25 05:33N 54°04' E 007°44'0 0.0
2016-Jun-25 04:33N 54°04' E 007°44'0 0.2
2016-Jun-25 03:33N 54°04' E 007°44'0 0.1
2016-Jun-25 02:33N 54°04' E 007°44'0 0.0
2016-Jun-25 01:30N 54°04' E 007°44'0 0.0
2016-Jun-25 00:33N 54°04' E 007°44'0 0.0
2016-Jun-24 23:33N 54°04' E 007°44'0 0.0
2016-Jun-24 22:33N 54°04' E 007°44'0 0.1
2016-Jun-24 21:33N 54°04' E 007°44'0 0.2
2016-Jun-24 20:33N 54°04' E 007°44'0 0.0
2016-Jun-24 19:33N 54°04' E 007°44'0 0.0
2016-Jun-24 18:30N 54°04' E 007°44'0 0.0
2016-Jun-24 17:33N 54°04' E 007°44'0 0.0
2016-Jun-24 16:33N 54°04' E 007°44'0 0.1
2016-Jun-24 15:24N 54°04' E 007°44'0 0.2
2016-Jun-24 14:33N 54°04' E 007°44'0 0.0
2016-Jun-24 13:30N 54°04' E 007°44'0 0.0
2016-Jun-24 12:30N 54°04' E 007°44'0 0.0
2016-Jun-24 11:33N 54°04' E 007°44'0 0.0
2016-Jun-24 10:33N 54°04' E 007°44'0 0.0
2016-Jun-24 09:30N 54°04' E 007°44'0 0.2
2016-Jun-24 08:33N 54°04' E 007°44'0 0.2
2016-Jun-24 07:33N 54°04' E 007°44'0 0.0
2016-Jun-24 04:33N 54°04' E 007°44'0 0.0
2016-Jun-24 03:33N 54°04' E 007°44'0 0.1
2016-Jun-24 02:24N 54°04' E 007°44'0 0.2
2016-Jun-24 01:33N 54°04' E 007°44'0 0.0
2016-Jun-24 00:33N 54°04' E 007°44'0 0.0
2016-Jun-23 23:33N 54°04' E 007°44'0 0.0
2016-Jun-23 22:33N 54°04' E 007°44'0 0.0
2016-Jun-23 21:33N 54°04' E 007°44'0 0.2
2016-Jun-23 20:27N 54°04' E 007°44'0 0.1
2016-Jun-23 19:30N 54°04' E 007°44'0 0.0
2016-Jun-23 18:33N 54°04' E 007°44'0 0.0
2016-Jun-23 17:33N 54°04' E 007°44'0 0.0
2016-Jun-23 16:33N 54°04' E 007°44'0 0.0
2016-Jun-23 15:33N 54°04' E 007°44'0 0.2
2016-Jun-23 14:33N 54°04' E 007°44'0 0.1
2016-Jun-23 13:30N 54°04' E 007°44'0 0.0
2016-Jun-23 12:30N 54°04' E 007°44'0 0.0
2016-Jun-23 11:33N 54°04' E 007°44'0 0.0
2016-Jun-23 10:33N 54°04' E 007°44'0 0.0
2016-Jun-23 09:33N 54°04' E 007°44'0 0.2
2016-Jun-23 08:30N 54°04' E 007°44'0 0.2
2016-Jun-23 07:33N 54°04' E 007°44'0 0.0
2016-Jun-23 05:33N 54°04' E 007°44'0 0.0
2016-Jun-23 04:33N 54°04' E 007°44'0 0.0
2016-Jun-23 03:33N 54°04' E 007°44'0 0.0
2016-Jun-23 02:33N 54°04' E 007°44'0 0.2
2016-Jun-23 01:33N 54°04' E 007°44'0 0.1
2016-Jun-23 00:33N 54°04' E 007°44'0 0.0
2016-Jun-22 23:33N 54°04' E 007°44'0 0.0
2016-Jun-22 22:33N 54°04' E 007°44'0 0.0
2016-Jun-22 21:30N 54°04' E 007°44'0 0.0
2016-Jun-22 20:33N 54°04' E 007°44'0 0.3
2016-Jun-22 19:33N 54°04' E 007°44'0 0.1
2016-Jun-22 18:33N 54°04' E 007°44'0 0.0
2016-Jun-22 17:31N 54°04' E 007°44'0 0.0
2016-Jun-22 16:33N 54°04' E 007°44'0 0.0
2016-Jun-22 15:33N 54°04' E 007°44'0 0.0
2016-Jun-22 14:33N 54°04' E 007°44'0 0.2
2016-Jun-22 13:33N 54°04' E 007°44'0 0.1
2016-Jun-22 12:33N 54°04' E 007°44'0 0.0
2016-Jun-22 11:33N 54°04' E 007°44'0 0.0
2016-Jun-22 10:24N 54°04' E 007°44'0 0.0
2016-Jun-22 09:30N 54°04' E 007°44'0 0.0
2016-Jun-22 08:33N 54°04' E 007°44'0 0.1
2016-Jun-22 07:33N 54°04' E 007°44'0 0.2
2016-Jun-22 06:33N 54°04' E 007°44'0 0.1
2016-Jun-22 05:33N 54°04' E 007°44'0 0.1
2016-Jun-22 04:33N 54°04' E 007°44'0 0.0
2016-Jun-22 03:33N 54°04' E 007°44'0 0.1
2016-Jun-22 02:33N 54°04' E 007°44'0 0.1
2016-Jun-22 01:33N 54°04' E 007°44'0 0.2
2016-Jun-22 00:33N 54°04' E 007°44'0 0.0
2016-Jun-21 23:33N 54°04' E 007°44'0 0.0
2016-Jun-21 22:30N 54°04' E 007°44'0 0.0
2016-Jun-21 21:33N 54°04' E 007°44'0 0.0
2016-Jun-21 20:30N 54°04' E 007°44'0 0.2
2016-Jun-21 19:33N 54°04' E 007°44'0 0.1
2016-Jun-21 18:33N 54°04' E 007°44'0 0.0
2016-Jun-21 17:33N 54°04' E 007°44'0 0.0
2016-Jun-21 16:33N 54°04' E 007°44'0 0.0
2016-Jun-21 15:33N 54°04' E 007°44'0 0.0
2016-Jun-21 14:30N 54°04' E 007°44'0 0.1
2016-Jun-21 13:33N 54°04' E 007°44'0 0.2
2016-Jun-21 12:33N 54°04' E 007°44'0 0.0
2016-Jun-21 11:33N 54°04' E 007°44'0 0.0
2016-Jun-21 10:30N 54°04' E 007°44'0 0.0
2016-Jun-21 09:33N 54°04' E 007°44'0 0.0
2016-Jun-21 08:33N 54°04' E 007°44'0 0.0
2016-Jun-21 07:33N 54°04' E 007°44'0 0.1
2016-Jun-21 04:33N 54°04' E 007°44'0 0.0
2016-Jun-21 03:33N 54°04' E 007°44'0 0.2
2016-Jun-21 02:33N 54°04' E 007°44'0 0.2
2016-Jun-21 01:33N 54°04' E 007°44'0 0.0
2016-Jun-21 00:33N 54°04' E 007°44'0 0.0
2016-Jun-20 23:33N 54°04' E 007°44'0 0.0
2016-Jun-20 22:33N 54°04' E 007°44'0 0.0
2016-Jun-20 21:24N 54°04' E 007°44'0 0.0
2016-Jun-20 20:33N 54°04' E 007°44'0 0.0
2016-Jun-20 19:33N 54°04' E 007°44'0 0.1
2016-Jun-20 18:33N 54°04' E 007°44'0 0.1
2016-Jun-20 17:33N 54°04' E 007°44'0 0.1
2016-Jun-20 16:33N 54°04' E 007°44'0 0.0
2016-Jun-20 15:33N 54°04' E 007°44'0 0.0
2016-Jun-20 14:33N 54°04' E 007°44'0 0.1
2016-Jun-20 13:33N 54°04' E 007°44'0 0.1
2016-Jun-20 12:33N 54°04' E 007°44'0 0.1
2016-Jun-20 11:33N 54°04' E 007°44'0 0.0
2016-Jun-20 10:33N 54°04' E 007°44'0 0.0
2016-Jun-20 09:33N 54°04' E 007°44'0 0.0
2016-Jun-20 08:33N 54°04' E 007°44'  

Dump ship's entire track history